Flight Track Log - Related Links

Times and Time Zones

All times are in EDT time to prevent confusion due to time zone crossing. See the XOJ549 flight status page for this flight to view local times or setup timezone preferences in your user account.

Time Position Orientation Groundspeed Altitude Reporting Facility
EDT Latitude Longitude Course Direction KTS MPH feet Rate Location/Type
Fri 01:40:26 PM 29.9342 -95.3639 208° Southwest 255 293 2,200  Level Houston Center
Fri 01:41:04 PM 29.9064 -95.4031 231° Southwest 273 314 3,900 2,640 Climbing Houston Center
Fri 01:42:06 PM 29.8631 -95.4736 235° Southwest 277 319 6,600 2,829 Climbing Houston Center
Fri 01:43:07 PM 29.8739 -95.5658 278° West 291 335 9,700 2,878 Climbing Houston Center
Fri 01:44:09 PM 29.8856 -95.6658 278° West 312 359 12,500 2,927 Climbing Houston Center
Fri 01:45:10 PM 29.8969 -95.7714 277° West 329 379 15,700 2,927 Climbing Houston Center
Fri 01:46:12 PM 29.9092 -95.8806 277° West 341 392 18,500 2,098 Climbing Houston Center
Fri 01:47:13 PM 29.9164 -96.0172 274° West 368 423 20,000 732 Climbing Houston Center
Fri 01:48:15 PM 29.9156 -96.1422 270° West 388 447 20,000  Level Houston Center
Fri 01:49:17 PM 29.9142 -96.2717 269° West 401 461 20,000  Level Houston Center
Fri 01:50:18 PM 29.9136 -96.3997 270° West 402 463 20,000  Level Houston Center
Fri 01:51:20 PM 29.9136 -96.5289 270° West 404 465 20,000  Level Houston Center
Fri 01:52:21 PM 29.9119 -96.6783 269° West 394 453 20,000  Level Houston Center
Fri 01:53:23 PM 29.9114 -96.8033 270° West 394 453 20,000  Level Houston Center
Fri 01:54:24 PM 29.9097 -96.9281 269° West 392 451 20,000  Level Houston Center
Fri 01:55:26 PM 29.9081 -97.0539 269° West 395 455 20,000 -48 Level Houston Center
Fri 01:56:28 PM 29.9069 -97.1794 269° West 395 455 19,900  Descending Houston Center
Fri 01:57:29 PM 29.9056 -97.3050 269° West 396 456 20,000  Climbing Houston Center
Fri 01:58:31 PM 29.9036 -97.4311 269° West 397 457 19,900 -1,209 Descending Houston Center
Fri 01:59:43 PM 29.9008 -97.6008 269° West 380 437 17,300 -2,049 Descending Houston Center
Fri 02:00:34 PM 29.8989 -97.6994 269° West 368 423 15,700 -1,858 Descending Houston Center
Fri 02:01:36 PM 29.8978 -97.8144 269° West 361 415 13,800 -1,659 Descending Houston Center
Fri 02:02:37 PM 29.8764 -97.9286 258° West 336 387 12,300 -1,317 Descending Houston Center
Fri 02:03:39 PM 29.8875 -98.0314 277° West 326 375 11,100 -1,073 Descending Houston Center
Fri 02:04:40 PM 29.8967 -98.1319 276° West 316 364 10,100 -927 Descending Houston Center
Fri 02:05:42 PM 29.9053 -98.2331 276° West 298 343 9,200 -927 Descending Houston Center
Fri 02:06:43 PM 29.9133 -98.3267 276° West 295 339 8,200 -976 Descending Houston Center
Fri 02:07:45 PM 29.9211 -98.4200 276° West 294 338 7,200 -1,016 Descending Houston Center
Fri 02:08:47 PM 29.9297 -98.5169 276° West 282 325 6,100 -1,024 Descending Houston Center
Fri 02:09:48 PM 29.9372 -98.6056 276° West 279 321 5,100 -683 Descending Houston Center
Fri 02:10:50 PM 29.9456 -98.7000 276° West 278 320 4,700 -488 Descending Houston Center
Fri 02:11:51 PM 29.9522 -98.7869 275° West 275 316 4,100 -244 Descending Houston Center
Fri 02:12:53 PM 29.9594 -98.8711 276° West 267 307 4,200  Climbing Houston Center
Fri 02:13:55 PM 29.9658 -98.9608 275° West 264 304 4,100 -293 Descending Houston Center
Fri 02:14:56 PM 29.9742 -99.0311 278° West 230 265 3,600 -390 Descending Houston Center
Fri 02:15:58 PM 30.0153 -99.0867 311° West 226 260 3,300 -290 Descending Houston Center
Fri 02:17:00 PM 29.9767 -99.0855 270° West  Level Estimated
Fri 02:24:00 PM 29.9767 -99.0855 270° West  Level Estimated
Fri 02:25:00 PM 29.9767 -99.0855 270° West  Level Estimated

Login

Don't have an account? Register now (free) for customized features, flight alerts, and more!